Koombana Bay — 3FYY4 — position and weather

sailwx.info

Track history (hours):
 
Tides and Currents Weather Stations Pressure Air Temp Water Temp Dewpoint Dewpoint Depression Visibility Wind Speed Wind Dir Waves Ship Positions

Koombana Bay

Last reported at 2018-Jul-03 04:32 UTC. Time now 2018-Jul-21 02:08 UTC.
Position N 30°19' W 125°49'.
Warning: this ship's position is 17 days out of date.

Length 180 m; draft 10.2 m.

Type: Cargo ship. MMSI: 371760000.

Date/timePositionNaut miles runAvg speedWind from/ knotsBaromVisibWave heightAir tempDewpointWater temp
2018-Jul-03 04:32N 30°19' W 125°49'313.4
2018-Jul-03 04:21N 30°18' W 125°47'2813.3
2018-Jul-03 02:16N 30°07' W 125°17'412.4
2018-Jul-03 01:58N 30°05' W 125°14'511.3
2018-Jul-03 01:30N 30°03' W 125°08'3 1.2
2018-Jul-02 23:15N 30°04' W 125°05'1 1.6
2018-Jul-02 22:45N 30°04' W 125°04'1 4.9
2018-Jul-02 22:30N 30°03' W 125°03'510.3
2018-Jul-02 22:00N 30°01' W 124°58'713.1
2018-Jul-02 21:30N 29°59' W 124°51'713.2
2018-Jul-02 20:59N 29°57' W 124°43'613.4
2018-Jul-02 20:30N 29°55' W 124°36'713.5
2018-Jul-02 20:00N 29°52' W 124°29'713.3
2018-Jul-02 19:29N 29°50' W 124°21'1713.2
2018-Jul-02 18:14N 29°44' W 124°03'713.3
2018-Jul-02 17:44N 29°41' W 123°56'18413.0
2018-Jul-02 03:36N 28°36' W 120°40'313.5
2018-Jul-02 03:25N 28°35' W 120°37'  
Track history (hours):
 
Tides and Currents Weather Stations Pressure Air Temp Water Temp Dewpoint Dewpoint Depression Visibility Wind Speed Wind Dir Waves Ship Positions

Koombana Bay

Last reported at 2018-Jul-03 04:32 UTC. Time now 2018-Jul-21 02:08 UTC.
Position N 30°19' W 125°49'.
Warning: this ship's position is 17 days out of date.

Length 180 m; draft 10.2 m.

Type: Cargo ship. MMSI: 371760000.

Date/timePositionNaut miles runAvg speedWind from/ knotsBaromVisibWave heightAir tempDewpointWater temp
2018-Jul-03 04:32N 30°19' W 125°49'313.4
2018-Jul-03 04:21N 30°18' W 125°47'2813.3
2018-Jul-03 02:16N 30°07' W 125°17'412.4
2018-Jul-03 01:58N 30°05' W 125°14'511.3
2018-Jul-03 01:30N 30°03' W 125°08'3 1.2
2018-Jul-02 23:15N 30°04' W 125°05'1 1.6
2018-Jul-02 22:45N 30°04' W 125°04'1 4.9
2018-Jul-02 22:30N 30°03' W 125°03'510.3
2018-Jul-02 22:00N 30°01' W 124°58'713.1
2018-Jul-02 21:30N 29°59' W 124°51'713.2
2018-Jul-02 20:59N 29°57' W 124°43'613.4
2018-Jul-02 20:30N 29°55' W 124°36'713.5
2018-Jul-02 20:00N 29°52' W 124°29'713.3
2018-Jul-02 19:29N 29°50' W 124°21'1713.2
2018-Jul-02 18:14N 29°44' W 124°03'713.3
2018-Jul-02 17:44N 29°41' W 123°56'18413.0
2018-Jul-02 03:36N 28°36' W 120°40'313.5
2018-Jul-02 03:25N 28°35' W 120°37'  

Dump ship's entire track history